Latest Weather Observations for High Range (Wanganderry)

IDN60801

Issued at 4:32 am EST Sunday 25 June 2017 (issued every 30 minutes, with the page automatically refreshed every 10 minutes)

About weather observations | Map of weather stations | Latest weather observations for NSW | Other Formats
Station Details ID: 068262 Name: HIGH RANGE AWS (WANGANDERRY) Lat: -34.33 Lon: 150.27 Height: 813.6 m
Data from the previous 72 hours. | See also: Recent months for locations in New South Wales
Date/Time
EST
Temp
°C
App
Temp
°C
Dew
Point
°C
Rel
Hum
%
Delta-T
°C
Wind Press
QNH
hPa
Press
MSL
hPa
Rain since
9am
mm
Dir  Spd
km/h
Gust
km/h
Spd
kts
Gust
kts
25/04:30am 4.0 -3.9 1.2 82 1.1 W 32 43 17 23 1016.0 1016.2 0.0
25/04:00am 4.3 -3.2 1.5 82 1.2 WSW 30 41 16 22 1016.1 1016.3 0.0
25/03:30am 4.3 -3.7 1.7 83 1.1 WSW 33 46 18 25 1016.1 1016.3 0.0
25/03:00am 4.3 -3.1 2.0 85 1.0 WSW 30 41 16 22 1016.3 1016.5 0.0
25/02:30am 4.6 -2.7 2.3 85 1.0 WSW 30 41 16 22 1016.2 1016.4 0.0
25/02:00am 4.7 -2.6 2.6 86 0.9 WSW 30 43 16 23 1016.2 1016.4 0.0
25/01:30am 5.1 -2.2 2.6 84 1.1 WSW 30 39 16 21 1016.2 1016.4 0.0
25/01:00am 4.8 -2.1 2.8 87 0.9 WSW 28 35 15 19 1016.3 1016.5 0.0
25/12:30am 4.5 -0.9 2.5 87 0.9 WSW 20 24 11 13 1016.6 1016.8 0.0
25/12:00am 5.2 0.1 2.9 85 1.0 W 19 22 10 12 1017.1 1017.3 0.0
 
Date/Time
EST
Temp
°C
App
Temp
°C
Dew
Point
°C
Rel
Hum
%
Delta-T
°C
Wind Press
QNH
hPa
Press
MSL
hPa
Rain since
9am
mm
Dir  Spd
km/h
Gust
km/h
Spd
kts
Gust
kts
24/11:30pm 5.1 0.0 2.8 85 1.0 W 19 24 10 13 1017.1 1017.3 0.0
24/11:00pm 5.1 -0.1 2.6 84 1.1 W 19 24 10 13 1017.1 1017.3 0.0
24/10:30pm 5.1 0.6 2.3 82 1.2 WSW 15 19 8 10 1017.2 1017.4 0.0
24/10:00pm 5.5 0.7 2.5 81 1.3 W 17 22 9 12 1017.4 1017.6 0.0
24/09:30pm 5.7 0.5 2.4 79 1.4 WSW 19 24 10 13 1017.3 1017.5 0.0
24/09:00pm 5.8 0.5 2.1 77 1.6 WSW 19 26 10 14 1017.2 1017.4 0.0
24/08:30pm 6.1 0.6 2.0 75 1.8 WSW 20 26 11 14 1017.2 1017.4 0.0
24/08:00pm 6.4 0.9 1.9 73 1.9 WSW 20 26 11 14 1017.2 1017.4 0.0
24/07:30pm 6.7 1.4 1.8 71 2.1 WSW 19 24 10 13 1017.2 1017.4 0.0
24/07:00pm 6.7 1.4 1.6 70 2.2 WSW 19 24 10 13 1017.3 1017.5 0.0
24/06:30pm 6.3 1.2 0.8 68 2.3 WSW 17 22 9 12 1017.1 1017.3 0.0
24/06:00pm 6.9 1.2 0.8 65 2.5 WSW 20 32 11 17 1016.6 1016.8 0.0
24/05:30pm 7.7 1.3 0.9 62 2.9 WSW 24 32 13 17 1016.4 1016.6 0.0
24/05:00pm 8.3 0.8 1.0 60 3.1 W 30 41 16 22 1016.1 1016.3 0.0
24/04:30pm 9.3 1.4 1.2 57 3.5 W 32 46 17 25 1016.0 1016.2 0.0
24/04:00pm 9.8 2.4 1.9 58 3.5 W 30 50 16 27 1015.8 1015.9 0.0
24/03:53pm 10.1 2.3 1.7 56 3.7 W 32 50 17 27 1015.8 1015.9 0.0
24/03:30pm 9.5 1.1 1.7 58 3.4 W 35 44 19 24 1015.7 1015.8 0.0
24/03:00pm 11.2 4.3 2.8 56 3.8 WNW 28 39 15 21 1015.7 1015.8 0.0
24/02:30pm 10.1 1.8 2.0 57 3.6 W 35 46 19 25 1015.7 1015.8 0.0
24/02:00pm 11.0 3.0 1.8 53 4.1 W 33 54 18 29 1015.3 1015.5 0.0
24/01:30pm 11.0 4.2 3.3 59 3.5 WSW 28 37 15 20 1015.3 1015.5 0.0
24/01:00pm 10.4 2.7 2.5 58 3.5 WSW 32 48 17 26 1015.3 1015.5 0.0
24/12:30pm 9.8 2.9 2.4 60 3.3 WSW 28 46 15 25 1015.7 1015.8 0.0
24/12:00pm 9.9 3.1 3.2 63 3.0 WSW 28 37 15 20 1016.0 1016.2 0.0
24/11:30am 9.8 3.0 3.1 63 3.0 WSW 28 37 15 20 1016.3 1016.5 0.0
24/11:04am 9.1 1.9 2.9 65 2.8 WSW 30 50 16 27 1016.6 1016.8 0.0
24/11:00am 9.0 1.8 2.8 65 2.8 WSW 30 37 16 20 1016.7 1016.9 0.0
24/10:30am 8.4 0.8 2.8 68 2.5 WSW 32 44 17 24 1016.9 1017.2 0.0
24/10:00am 8.1 2.0 3.0 70 2.3 WSW 24 32 13 17 1016.8 1017.0 0.0
24/09:30am 7.8 2.5 2.9 71 2.2 WSW 20 35 11 19 1017.2 1017.4 0.0
24/09:00am 6.2 0.3 1.9 74 1.8 WSW 22 30 12 16 1016.8 1017.0 0.0
24/08:30am 5.5 -0.8 1.6 76 1.6 WSW 24 30 13 16 1016.6 1016.8 0.0
24/08:00am 5.5 -2.5 1.4 75 1.7 WSW 33 39 18 21 1016.1 1016.3 0.0
24/07:30am 5.2 -2.3 1.3 76 1.6 WSW 30 35 16 19 1015.8 1015.9 0.0
24/07:00am 5.3 -1.8 1.4 76 1.6 WSW 28 35 15 19 1015.4 1015.6 0.0
24/06:30am 4.6 -2.1 1.3 79 1.4 WSW 26 32 14 17 1015.0 1015.2 0.0
24/06:00am 5.0 -1.8 1.1 76 1.6 WSW 26 37 14 20 1014.7 1014.8 0.0
24/05:30am 5.2 -1.1 1.3 76 1.6 WSW 24 32 13 17 1014.2 1014.4 0.0
24/05:00am 5.5 -1.2 1.2 74 1.8 WSW 26 35 14 19 1014.1 1014.3 0.0
24/04:30am 5.7 -1.8 1.2 73 1.9 WSW 30 37 16 20 1014.0 1014.2 0.0
24/04:00am 5.8 -0.5 1.3 73 1.9 WSW 24 32 13 17 1013.8 1014.0 0.0
24/03:40am 5.7 -1.4 1.2 73 1.9 WSW 28 46 15 25 1014.0 1014.2 0.0
24/03:30am 5.9 -1.6 1.2 72 2.0 WSW 30 46 16 25 1014.0 1014.2 0.0
24/03:00am 5.6 -1.9 1.2 73 1.8 WSW 30 39 16 21 1014.0 1014.2 0.0
24/02:30am 5.6 -1.5 1.2 73 1.8 WSW 28 37 15 20 1014.1 1014.3 0.0
24/02:00am 5.6 -1.9 1.0 72 1.9 WSW 30 39 16 21 1013.8 1014.0 0.0
24/01:30am 6.2 -2.3 1.1 70 2.1 WSW 35 50 19 27 1013.7 1013.8 0.0
24/01:11am 6.2 -1.7 1.1 70 2.1 WSW 32 50 17 27 1013.9 1014.1 0.0
24/01:00am 6.7 -1.4 0.8 66 2.5 WSW 33 50 18 27 1013.9 1014.1 0.0
24/12:30am 6.6 -2.0 0.5 65 2.5 WSW 35 50 19 27 1013.8 1014.0 0.0
24/12:11am 6.4 -1.7 0.7 67 2.4 WSW 33 54 18 29 1013.8 1014.0 0.0
24/12:00am 7.0 -2.3 0.9 65 2.6 W 39 56 21 30 1013.6 1013.7 0.0
 
Date/Time
EST
Temp
°C
App
Temp
°C
Dew
Point
°C
Rel
Hum
%
Delta-T
°C
Wind Press
QNH
hPa
Press
MSL
hPa
Rain since
9am
mm
Dir  Spd
km/h
Gust
km/h
Spd
kts
Gust
kts
23/11:30pm 6.8 -1.1 1.3 68 2.3 W 32 43 17 23 1013.9 1014.1 0.0
23/11:00pm 6.8 -1.5 2.1 72 2.0 W 35 50 19 27 1014.2 1014.4 0.0
23/10:30pm 7.2 -1.5 2.3 71 2.1 W 37 54 20 29 1014.6 1014.7 0.0
23/10:18pm 7.3 -1.4 2.2 70 2.2 W 37 56 20 30 1014.5 1014.6 0.0
23/10:00pm 7.5 -1.9 2.4 70 2.2 W 41 56 22 30 1014.6 1014.7 0.0
23/09:32pm 7.7 -0.2 2.4 69 2.3 W 33 54 18 29 1014.5 1014.6 0.0
23/09:30pm 7.5 -0.3 2.6 71 2.2 W 33 48 18 26 1014.6 1014.7 0.0
23/09:09pm 7.4 0.5 2.5 71 2.1 W 28 46 15 25 1014.6 1014.7 0.0
23/09:00pm 7.6 1.5 2.5 70 2.2 WNW 24 41 13 22 1014.2 1014.4 0.0
23/08:30pm 7.5 1.4 2.6 71 2.2 WNW 24 39 13 21 1014.9 1015.1 0.0
23/08:00pm 7.5 1.7 2.4 70 2.2 WNW 22 32 12 17 1015.2 1015.4 0.0
23/07:30pm 7.3 2.1 2.4 71 2.1 W 19 28 10 15 1015.3 1015.5 0.0
23/07:00pm 7.4 2.9 2.3 70 2.2 WNW 15 24 8 13 1015.2 1015.4 0.0
23/06:30pm 7.8 3.0 2.5 69 2.3 WNW 17 22 9 12 1015.1 1015.3 0.0
23/06:00pm 8.5 3.3 2.5 66 2.7 W 19 32 10 17 1015.1 1015.3 0.0
23/05:30pm 8.2 3.3 2.2 66 2.6 W 17 26 9 14 1015.4 1015.6 0.0
23/05:00pm 9.1 3.2 2.0 61 3.1 W 22 30 12 16 1015.2 1015.4 0.0
23/04:30pm 10.0 3.4 1.9 57 3.6 W 26 37 14 20 1015.3 1015.5 0.0
23/04:00pm 10.8 2.9 1.1 51 4.2 W 32 46 17 25 1015.3 1015.5 0.0
23/03:30pm 11.6 6.2 2.4 53 4.2 W 20 30 11 16 1015.2 1015.4 0.0
23/03:00pm 12.4 7.2 2.3 50 4.6 W 19 32 10 17 1015.4 1015.6 0.0
23/02:30pm 12.6 7.4 2.7 51 4.6 WNW 19 24 10 13 1015.3 1015.5 0.0
23/02:00pm 12.2 7.1 2.9 53 4.3 WNW 19 26 10 14 1015.7 1015.8 0.0
23/01:30pm 12.6 7.1 4.1 56 4.0 WNW 22 33 12 18 1015.9 1016.1 0.0
23/01:00pm 12.0 5.2 3.3 55 4.0 WNW 28 39 15 21 1016.3 1016.5 0.0
23/12:30pm 12.0 6.6 4.7 61 3.5 WNW 22 32 12 17 1017.1 1017.3 0.0
23/12:00pm 11.2 5.8 4.7 64 3.1 WNW 22 30 12 16 1017.5 1017.7 0.0
23/11:30am 10.4 4.2 4.1 65 2.9 WNW 26 33 14 18 1018.5 1018.7 0.0
23/11:00am 10.8 4.3 4.9 67 2.8 WNW 28 37 15 20 1019.1 1019.4 0.0
23/10:30am 10.1 3.9 4.5 68 2.6 W 26 37 14 20 1019.7 1019.9 0.0
23/10:00am 9.6 3.4 4.2 69 2.5 W 26 33 14 18 1019.9 1020.1 0.0
23/09:30am 9.3 3.4 3.7 68 2.6 WNW 24 28 13 15 1020.2 1020.5 0.0
23/09:00am 8.7 3.7 3.7 71 2.3 W 19 26 10 14 1020.3 1020.6 0.0
23/08:30am 7.7 2.5 3.6 75 1.8 W 20 26 11 14 1020.5 1020.8 0.0
23/08:00am 7.4 2.7 3.1 74 1.9 W 17 22 9 12 1020.4 1020.7 0.0
23/07:30am 7.6 2.5 3.1 73 2.0 WNW 19 22 10 12 1020.1 1020.4 0.0
23/07:00am 7.5 2.2 3.2 74 1.9 WNW 20 24 11 13 1020.1 1020.4 0.0
23/06:30am 7.3 1.6 3.0 74 1.9 WNW 22 30 12 16 1020.2 1020.5 0.0
23/06:00am 7.0 1.6 2.7 74 1.9 WNW 20 26 11 14 1019.8 1020.0 0.0
23/05:30am 7.5 2.1 2.6 71 2.2 WNW 20 24 11 13 1019.7 1019.9 0.0
23/05:00am 7.3 1.6 2.6 72 2.1 WNW 22 28 12 15 1019.9 1020.1 0.0
23/04:30am 6.2 0.4 2.3 76 1.7 WNW 22 24 12 13 1020.5 1020.8 0.0
23/04:00am 6.8 1.0 2.5 74 1.9 WNW 22 30 12 16 1020.2 1020.5 0.0
23/03:30am 6.2 0.4 2.5 77 1.6 W 22 30 12 16 1020.7 1021.0 0.0
23/03:00am 5.9 1.4 2.0 76 1.7 WNW 15 20 8 11 1021.0 1021.2 0.0
23/02:30am 6.3 2.8 1.2 70 2.1 W 9 11 5 6 1021.2 1021.5 0.0
23/02:00am 6.4 2.5 1.1 69 2.2 WNW 11 13 6 7 1021.4 1021.7 0.0
23/01:30am 6.3 2.8 3.5 82 1.2 WNW 11 13 6 7 1021.6 1021.9 0.0
23/01:00am 6.9 3.4 3.3 78 1.6 WNW 11 11 6 6 1021.8 1022.1 0.0
23/12:30am 7.1 4.3 3.0 75 1.8 NW 7 9 4 5 1022.3 1022.6 0.0
23/12:00am 7.3 4.2 3.5 77 1.7 NW 9 11 5 6 1022.5 1022.8 0.0
 
Date/Time
EST
Temp
°C
App
Temp
°C
Dew
Point
°C
Rel
Hum
%
Delta-T
°C
Wind Press
QNH
hPa
Press
MSL
hPa
Rain since
9am
mm
Dir  Spd
km/h
Gust
km/h
Spd
kts
Gust
kts
22/11:30pm 8.0 4.6 1.8 65 2.7 NW 9 11 5 6 1022.7 1023.0 0.0
22/11:00pm 8.0 4.7 2.5 68 2.4 NW 9 9 5 5 1023.4 1023.8 0.0
22/10:30pm 8.3 5.1 2.8 68 2.4 NW 9 11 5 6 1023.7 1024.0 0.0
22/10:00pm 8.3 5.0 4.7 78 1.7 WNW 11 13 6 7 1024.0 1024.3 0.0
22/09:30pm 8.3 5.3 5.8 84 1.2 NW 11 13 6 7 1023.9 1024.2 0.0
22/09:00pm 8.2 5.7 6.5 89 0.8 NW 9 13 5 7 1024.2 1024.5 0.0
22/08:30pm 8.4 5.9 6.5 88 0.9 NW 9 13 5 7 1024.3 1024.7 0.0
22/08:00pm 8.2 5.2 6.2 87 1.0 NW 11 13 6 7 1024.4 1024.8 0.0
22/07:30pm 8.9 6.4 6.5 85 1.2 NW 9 11 5 6 1024.3 1024.7 0.0
22/07:00pm 8.9 6.2 5.6 80 1.6 NNW 9 11 5 6 1024.4 1024.8 0.0
22/06:30pm 9.0 6.3 5.6 79 1.6 N 9 11 5 6 1024.2 1024.5 0.0
22/06:00pm 9.3 6.8 4.9 74 2.1 NNW 7 9 4 5 1024.4 1024.8 0.0
22/05:30pm 9.4 7.5 5.0 74 2.1 NNW 4 6 2 3 1024.4 1024.8 0.0
22/05:00pm 9.4 7.2 5.4 76 1.9 NNW 6 6 3 3 1024.1 1024.4 0.0
22/04:30pm 10.5 8.8 5.9 73 2.2 NNW 4 4 2 2 1024.3 1024.7 0.0
22/04:00pm 11.3 9.2 6.0 70 2.6 NNW 6 7 3 4 1024.6 1025.0 0.0
22/03:30pm 12.0 10.0 6.3 68 2.8 WNW 6 9 3 5 1025.0 1025.3 0.0
22/03:00pm 12.5 10.5 4.5 58 3.8 WNW 4 7 2 4 1024.7 1025.1 0.0
22/02:30pm 12.3 10.4 5.0 61 3.5 WNW 4 9 2 5 1024.6 1025.0 0.0
22/02:00pm 12.0 9.6 4.5 60 3.6 WNW 6 9 3 5 1024.7 1025.1 0.0
22/01:30pm 12.0 9.5 4.0 58 3.8 NW 6 9 3 5 1025.2 1025.5 0.0
22/01:00pm 11.7 9.3 5.3 65 3.1 N 7 11 4 6 1025.5 1025.9 0.0
22/12:30pm 11.0 8.1 4.7 65 3.0 NNW 9 15 5 8 1025.9 1026.3 0.0
22/12:00pm 11.1 8.4 5.8 70 2.6 N 9 17 5 9 1026.6 1027.0 0.0
22/11:30am 9.9 7.5 5.1 72 2.3 N 7 13 4 7 1027.1 1027.5 0.0
22/11:00am 9.0 8.3 8.7 98 0.2 SW 2 6 1 3 1027.6 1028.0 0.0
22/10:30am 6.5 4.6 6.5 100 0.0 SW 6 7 3 4 1028.0 1028.4 0.0
22/10:00am 6.7 4.2 6.7 100 0.0 SW 9 11 5 6 1028.3 1028.7 0.0
22/09:30am 5.7 2.6 5.7 100 0.0 SSW 11 13 6 7 1028.2 1028.6 0.0
22/09:00am 5.8 2.8 5.8 100 0.0 SW 11 15 6 8 1028.2 1028.6 0.2
22/08:30am 5.7 2.6 5.7 100 0.0 SSW 11 15 6 8 1028.0 1028.4 0.2
22/08:00am 5.4 2.3 5.4 100 0.0 SSW 11 15 6 8 1028.1 1028.5 0.2
22/07:30am 5.7 2.6 5.7 100 0.0 SSW 11 15 6 8 1027.9 1028.3 0.2
22/07:00am 5.6 2.1 5.6 100 0.0 SSW 13 15 7 8 1027.7 1028.1 0.2
22/06:30am 5.6 2.5 5.6 100 0.0 SSW 11 15 6 8 1027.4 1027.9 0.2
22/06:00am 5.4 1.9 5.4 100 0.0 SSW 13 17 7 9 1027.1 1027.5 0.2
22/05:30am 5.3 1.4 5.3 100 0.0 SSW 15 19 8 10 1026.8 1027.2 0.2
22/05:00am 4.7 1.0 4.7 100 0.0 S 13 17 7 9 1026.7 1027.1 0.2

Other Formats:

Comma delimited format used in spreadsheet applications
http://www.bom.gov.au/fwo/IDN60801/IDN60801.99742.axf

JavaScript Object Notation format (JSON) in row-major order
http://www.bom.gov.au/fwo/IDN60801/IDN60801.99742.json